Archival Weather

Westchester County

White Plains, New York (KHPN)

Report from: Friday, February 23, 2024 7:56 PM EST
Current time: Wednesday, May 29, 2024 7:49 PM EDT

Current weather – Weather history – Daily summaries
Weather forecast

Temperature5.6°C (42.1°F)
Wind chill2.5°C (36.6°F)
Dew point2.2°C (36.0°F)
Winds 8 kts (4.1 m/s, 9.2 mph) North-Northwest (330°)
Visibility10 mi. (16.1 km)
Clouds Sky clear
Altimeter29.45 in.Hg (997 mB)
Relative humidity79 %
Density altitude-499 ft. (-152 m)
Sea-level pressure99.8 kPa (998 mB, 29.47 in.Hg)
Remarks Automated weather observing station with precipitation discriminator
Flight conditions Visual Meteorological Conditions
Raw dataKHPN 240056Z 33008KT 10SM CLR 06/02 A2945 RMK AO2 SLP978 T00560022
An error has occurred. This application may no longer respond until reloaded. Reload 🗙